^^
MeteoGriva-Weather Station Historical Data
Daily Summary for August 25, 2020 Units:  English    Metric   Both
Daily Weekly Monthly Yearly Custom
  High: Low: Average:
Temperature: 53.1 °F 36.3 °F 43.9 °F
Dew Point: 40.8 °F 30 °F 34.9 °F
Humidity: 83% 60.1% 71%
Wind Speed: 3.1mph 0mph 0.2mph
Wind Gust: 10.1mph - -
Wind- - SSE
Pressure: 30.4 in 30.2 in -
Precipitation: 0 in    
Historical Graphs
 
 
Tabular Data for August 25, 2020
Time Temperature Dew Point Pressure Wind Wind Speed Wind Gust Humidity Rainfall Rate (Hourly) solar
00:04 39 °F 33.1 °F 30.4 in Calm     79.2% 0 in 0 W/m2
00:09 39.4 °F 33.4 °F 30.4 in Calm     79% 0 in 0 W/m2
00:14 39.4 °F 33.6 °F 30.4 in Calm     79.4% 0 in 0 W/m2
00:19 39.4 °F 33.8 °F 30.4 in Calm     80.7% 0 in 0 W/m2
00:24 39 °F 34 °F 30.4 in Calm     81.7% 0 in 0 W/m2
00:29 39.2 °F 33.6 °F 30.4 in Calm     80.1% 0 in 0 W/m2
00:34 39.2 °F 33.6 °F 30.4 in Calm     80% 0 in 0 W/m2
00:39 39.2 °F 33.6 °F 30.4 in Calm     80% 0 in 0 W/m2
00:44 39 °F 33.6 °F 30.4 in Calm     81% 0 in 0 W/m2
00:49 38.5 °F 33.3 °F 30.4 in Calm     81.3% 0 in 0 W/m2
00:54 38.3 °F 33.3 °F 30.4 in Calm     82% 0 in 0 W/m2
00:59 38.3 °F 33.3 °F 30.4 in Calm     81.8% 0 in 0 W/m2
01:04 38.3 °F 32.7 °F 30.4 in Calm     80.1% 0 in 0 W/m2
01:09 38.3 °F 32.7 °F 30.4 in Calm     80.7% 0 in 0 W/m2
01:14 38.1 °F 32.7 °F 30.4 in Calm     81% 0 in 0 W/m2
01:19 38.1 °F 32.7 °F 30.4 in Calm     81% 0 in 0 W/m2
01:24 38.1 °F 32.7 °F 30.4 in Calm     80.8% 0 in 0 W/m2
01:29 38.8 °F 33.3 °F 30.4 in Calm     79.8% 0 in 0 W/m2
01:34 39.2 °F 33.3 °F 30.4 in Calm     79.1% 0 in 0 W/m2
01:39 39.2 °F 33.4 °F 30.4 in Calm     79.6% 0 in 0 W/m2
01:44 39 °F 33.6 °F 30.4 in Calm     81.2% 0 in 0 W/m2
01:49 38.5 °F 33.4 °F 30.4 in Calm     82% 0 in 0 W/m2
01:54 38.1 °F 32.7 °F 30.4 in Calm     81.1% 0 in 0 W/m2
01:59 38.1 °F 32.5 °F 30.4 in Calm     80.6% 0 in 0 W/m2
02:04 38.1 °F 32.7 °F 30.3 in Calm     81% 0 in 0 W/m2
02:09 37.9 °F 32.7 °F 30.3 in Calm     81.2% 0 in 0 W/m2
02:14 37.8 °F 32.7 °F 30.3 in Calm     82% 0 in 0 W/m2
02:19 37.8 °F 32.5 °F 30.3 in Calm     81% 0 in 0 W/m2
02:24 37.8 °F 32.5 °F 30.3 in Calm     81% 0 in 0 W/m2
02:29 37.9 °F 32.4 °F 30.3 in Calm     80% 0 in 0 W/m2
02:34 37.9 °F 32.5 °F 30.3 in Calm     80.6% 0 in 0 W/m2
02:39 37.9 °F 32.7 °F 30.3 in Calm     81% 0 in 0 W/m2
02:44 37.9 °F 32.7 °F 30.3 in Calm     81% 0 in 0 W/m2
02:49 37.8 °F 32.4 °F 30.3 in Calm     81% 0 in 0 W/m2
02:54 37.6 °F 32 °F 30.3 in Calm     80% 0 in 0 W/m2
02:59 37.6 °F 31.5 °F 30.3 in Calm     78.6% 0 in 0 W/m2
03:04 37.8 °F 32.2 °F 30.3 in Calm     80% 0 in 0 W/m2
03:09 37.4 °F 32.2 °F 30.3 in Calm     81.7% 0 in 0 W/m2
03:14 37 °F 32 °F 30.3 in Calm     81.6% 0 in 0 W/m2
03:19 37 °F 32 °F 30.3 in Calm     82% 0 in 0 W/m2
03:24 37 °F 31.8 °F 30.3 in Calm     81.1% 0 in 0 W/m2
03:29 36.9 °F 31.8 °F 30.3 in Calm     81.6% 0 in 0 W/m2
03:34 36.7 °F 32 °F 30.3 in Calm     82.8% 0 in 0 W/m2
03:39 36.7 °F 31.6 °F 30.3 in Calm     82.1% 0 in 0 W/m2
03:44 36.7 °F 32 °F 30.3 in Calm     83% 0 in 0 W/m2
03:49 36.5 °F 31.5 °F 30.3 in Calm     82% 0 in 0 W/m2
03:54 36.7 °F 31.5 °F 30.3 in Calm     81% 0 in 0 W/m2
03:59 36.7 °F 31.5 °F 30.3 in Calm     81.3% 0 in 0 W/m2
04:04 36.7 °F 31.5 °F 30.3 in Calm     81% 0 in 0 W/m2
04:09 36.7 °F 31.8 °F 30.3 in Calm     82.3% 0 in 0 W/m2
04:14 36.3 °F 31.6 °F 30.3 in Calm     82.8% 0 in 0 W/m2
04:19 36.5 °F 31.1 °F 30.3 in Calm     80.3% 0 in 0 W/m2
04:24 36.7 °F 31.1 °F 30.3 in Calm     79.9% 0 in 0 W/m2
04:29 37 °F 31.3 °F 30.3 in Calm     79.7% 0 in 0 W/m2
04:34 37.4 °F 31.8 °F 30.3 in Calm     80% 0 in 0 W/m2
04:39 37.2 °F 31.8 °F 30.3 in Calm     80.3% 0 in 0 W/m2
04:44 37.2 °F 31.8 °F 30.3 in Calm     80.4% 0 in 0 W/m2
04:49 37.2 °F 31.3 °F 30.3 in Calm     79.1% 0 in 0 W/m2
04:54 37 °F 31.6 °F 30.3 in Calm     80.2% 0 in 0 W/m2
04:59 37 °F 31.6 °F 30.3 in Calm     80.2% 0 in 0 W/m2
05:04 36.9 °F 31.5 °F 30.3 in Calm     80.6% 0 in 0 W/m2
05:09 36.9 °F 31.3 °F 30.3 in Calm     79.9% 0 in 0 W/m2
05:14 36.7 °F 30.6 °F 30.3 in Calm     79% 0 in 0 W/m2
05:19 36.5 °F 30.6 °F 30.3 in Calm     79% 0 in 0 W/m2
05:24 36.5 °F 30.6 °F 30.3 in Calm     79% 0 in 0 W/m2
05:29 36.5 °F 30.6 °F 30.3 in Calm     79% 0 in 0 W/m2
05:34 36.3 °F 30.2 °F 30.3 in Calm     78.4% 0 in 0 W/m2
05:39 36.3 °F 30 °F 30.3 in Calm     77.3% 0 in 0 W/m2
05:44 36.5 °F 30.2 °F 30.3 in Calm     77.3% 0 in 0 W/m2
05:49 36.9 °F 30.6 °F 30.3 in Calm     77.8% 0 in 0 W/m2
05:54 37.4 °F 31.5 °F 30.3 in Calm     78.8% 0 in 0 W/m2
05:59 37.4 °F 31.6 °F 30.3 in Calm     79.4% 0 in 0 W/m2
06:04 37.2 °F 31.5 °F 30.3 in Calm     79.5% 0 in 0 W/m2
06:09 37.2 °F 31.1 °F 30.3 in Calm     78.4% 0 in 0 W/m2
06:14 37.4 °F 31.5 °F 30.3 in Calm     78.8% 0 in 0 W/m2
06:19 37.4 °F 31.3 °F 30.3 in Calm     78.7% 0 in 0 W/m2
06:24 37.2 °F 31.3 °F 30.3 in Calm     78.8% 0 in 0 W/m2
06:29 37.2 °F 30.9 °F 30.3 in Calm     78% 0 in 0 W/m2
06:34 37.8 °F 31.5 °F 30.3 in Calm     77.7% 0 in 0 W/m2
06:39 37.8 °F 31.5 °F 30.3 in Calm     77.6% 0 in 0 W/m2
06:44 37.8 °F 31.1 °F 30.3 in Calm     76.6% 0 in 0 W/m2
06:49 37.8 °F 30.9 °F 30.3 in Calm     76% 0 in 0 W/m2
06:54 37.6 °F 31.1 °F 30.3 in Calm     77.4% 0 in 0 W/m2
06:59 37.6 °F 31.3 °F 30.3 in Calm     78% 0 in 0 W/m2
07:04 37.6 °F 31.3 °F 30.3 in Calm     78% 0 in 0 W/m2
07:09 37.6 °F 31.3 °F 30.3 in Calm     77.3% 0 in 0 W/m2
07:14 37.9 °F 31.3 °F 30.3 in Calm     76.7% 0 in 0 W/m2
07:19 37.9 °F 31.3 °F 30.3 in Calm     76.6% 0 in 0 W/m2
07:24 37.9 °F 31.5 °F 30.3 in Calm     77% 0 in 0 W/m2
07:29 38.1 °F 31.6 °F 30.3 in Calm     76.9% 0 in 0 W/m2
07:34 38.7 °F 31.8 °F 30.3 in Calm     76% 0 in 0 W/m2
07:39 38.7 °F 31.8 °F 30.3 in Calm     76% 0 in 0 W/m2
07:44 38.7 °F 31.5 °F 30.3 in Calm     75% 0 in 0 W/m2
07:49 38.7 °F 31.6 °F 30.3 in Calm     75.4% 0 in 0 W/m2
07:54 38.5 °F 31.6 °F 30.3 in Calm     76.3% 0 in 3 W/m2
07:59 38.5 °F 31.6 °F 30.3 in Calm     76.3% 0 in 7 W/m2
08:04 38.5 °F 31.6 °F 30.3 in Calm     76.2% 0 in 11 W/m2
08:09 38.7 °F 31.5 °F 30.3 in Calm     75.1% 0 in 17 W/m2
08:14 39.7 °F 32.2 °F 30.3 in Calm     74% 0 in 21 W/m2
08:19 39.7 °F 32.5 °F 30.3 in Calm     75.3% 0 in 26 W/m2
08:24 39.7 °F 32.5 °F 30.3 in Calm     75.6% 0 in 31 W/m2
08:29 39.7 °F 32.2 °F 30.3 in Calm     73.8% 0 in 36 W/m2
08:34 41.4 °F 33.3 °F 30.3 in Calm     72.4% 0 in 40 W/m2
08:39 41.4 °F 32.9 °F 30.3 in Calm     71.4% 0 in 46 W/m2
08:44 41.5 °F 32.5 °F 30.3 in Calm     70.3% 0 in 50 W/m2
08:49 42.1 °F 31.8 °F 30.3 in Calm     66.8% 0 in 54 W/m2
08:54 45.3 °F 34.5 °F 30.3 in Calm     65.6% 0 in 59 W/m2
08:59 45.9 °F 34.2 °F 30.3 in Calm     63.2% 0 in 61 W/m2
09:04 45.9 °F 36.3 °F 30.3 in Calm     69% 0 in 65 W/m2
09:09 45.7 °F 36.1 °F 30.3 in Calm     69.1% 0 in 69 W/m2
09:14 45.7 °F 35.4 °F 30.3 in Calm     66.9% 0 in 71 W/m2
09:19 45.7 °F 35.2 °F 30.3 in Calm     66.4% 0 in 74 W/m2
09:24 45.9 °F 34.9 °F 30.3 in Calm     65.6% 0 in 76 W/m2
09:29 45.7 °F 36 °F 30.3 in Calm     68.4% 0 in 78 W/m2
09:34 44.2 °F 34.5 °F 30.3 in Calm     68.6% 0 in 80 W/m2
09:39 44.2 °F 33.4 °F 30.3 in Calm     65.6% 0 in 82 W/m2
09:44 45 °F 33.8 °F 30.3 in Calm     64.9% 0 in 83 W/m2
09:49 45.3 °F 34.7 °F 30.3 in Calm     65.8% 0 in 84 W/m2
09:54 46.6 °F 35.8 °F 30.3 in Calm     65.6% 0 in 85 W/m2
09:59 46.9 °F 35.6 °F 30.3 in Calm     64.3% 0 in 86 W/m2
10:04 47.1 °F 35.2 °F 30.3 in Calm     63% 0 in 87 W/m2
10:09 47.3 °F 35.4 °F 30.3 in Calm     63% 0 in 88 W/m2
10:14 47.5 °F 36 °F 30.3 in Calm     64% 0 in 88 W/m2
10:19 47.3 °F 36.1 °F 30.3 in Calm     64.6% 0 in 89 W/m2
10:24 47.5 °F 36.1 °F 30.3 in Calm     64.4% 0 in 90 W/m2
10:29 47.5 °F 36 °F 30.3 in Calm     64% 0 in 91 W/m2
10:34 48.4 °F 36.9 °F 30.3 in SE 0.2 mph 2.5 mph 64.4% 0 in 91 W/m2
10:39 48.6 °F 37 °F 30.3 in Calm     64.3% 0 in 93 W/m2
10:44 48.6 °F 36.9 °F 30.3 in Calm   2.5 mph 64% 0 in 94 W/m2
10:49 48.6 °F 36.9 °F 30.3 in SE 0.6 mph 4.9 mph 64.1% 0 in 96 W/m2
10:54 48 °F 36.7 °F 30.3 in SSE 0.9 mph 4.9 mph 64.4% 0 in 98 W/m2
10:59 48 °F 36.5 °F 30.3 in South 1.1 mph 4.9 mph 64.1% 0 in 100 W/m2
11:04 48 °F 37 °F 30.3 in SSE 1.7 mph 7.6 mph 65.6% 0 in 102 W/m2
11:09 48 °F 37 °F 30.3 in SSE 1.7 mph 7.6 mph 65.7% 0 in 105 W/m2
11:14 48.2 °F 37 °F 30.3 in SSE 1.7 mph 7.6 mph 65.2% 0 in 108 W/m2
11:19 48.2 °F 37.2 °F 30.3 in South 2.1 mph 7.6 mph 65.3% 0 in 111 W/m2
11:24 48.2 °F 36.7 °F 30.3 in SSE 2 mph 7.6 mph 64.1% 0 in 115 W/m2
11:29 48.2 °F 36.1 °F 30.3 in SSE 1.2 mph 7.6 mph 63% 0 in 119 W/m2
11:34 48.6 °F 36.5 °F 30.3 in SSE 2.4 mph 7.6 mph 63.1% 0 in 123 W/m2
11:39 48.7 °F 36.9 °F 30.3 in SSE 2.6 mph 7.6 mph 63.4% 0 in 127 W/m2
11:44 48.7 °F 36.7 °F 30.3 in SSE 2.5 mph 7.6 mph 62.8% 0 in 132 W/m2
11:49 48.7 °F 36.9 °F 30.3 in SSE 1.7 mph 7.6 mph 63.7% 0 in 134 W/m2
11:54 48.6 °F 36.9 °F 30.3 in SSE 1.9 mph 7.6 mph 63.8% 0 in 132 W/m2
11:59 48.6 °F 36.5 °F 30.3 in South 3.1 mph 7.6 mph 63% 0 in 107 W/m2
12:04 48.6 °F 36.5 °F 30.3 in SSE 2.2 mph 7.6 mph 63% 0 in 93 W/m2
12:09 48.7 °F 36.5 °F 30.3 in South 2.1 mph 10.1 mph 62.9% 0 in 93 W/m2
12:14 48.9 °F 37 °F 30.3 in SSE 2.5 mph 7.6 mph 63.4% 0 in 93 W/m2
12:19 49.1 °F 37 °F 30.3 in SSE 2.1 mph 7.6 mph 63.1% 0 in 101 W/m2
12:24 49.1 °F 37.2 °F 30.3 in SSE 3.1 mph 7.6 mph 63.4% 0 in 156 W/m2
12:29 49.1 °F 37.2 °F 30.3 in SSE 2.4 mph 7.6 mph 63.7% 0 in 182 W/m2
12:34 49.1 °F 37.4 °F 30.3 in SSE 2.5 mph 7.6 mph 64% 0 in 188 W/m2
12:39 49.1 °F 37.6 °F 30.3 in SSE 1.9 mph 10.1 mph 64.4% 0 in 201 W/m2
12:44 49.1 °F 37.4 °F 30.3 in SE 2 mph 10.1 mph 64.1% 0 in 209 W/m2
12:49 49.1 °F 37.6 °F 30.3 in SSE 1.1 mph 10.1 mph 64.3% 0 in 221 W/m2
12:54 49.5 °F 37.8 °F 30.3 in SSE 0.6 mph 4.9 mph 63.8% 0 in 232 W/m2
12:59 49.8 °F 37.9 °F 30.3 in SSE 0.6 mph 7.6 mph 63.2% 0 in 248 W/m2
13:04 49.8 °F 37.9 °F 30.3 in SE 0.3 mph 7.6 mph 63.6% 0 in 261 W/m2
13:09 50 °F 37.9 °F 30.3 in South 0.6 mph 4.9 mph 62.8% 0 in 273 W/m2
13:14 50.5 °F 37.9 °F 30.3 in South 0.8 mph 4.9 mph 62% 0 in 283 W/m2
13:19 50.9 °F 37.9 °F 30.3 in SE 1.4 mph 7.6 mph 61.1% 0 in 290 W/m2
13:24 50.9 °F 38.1 °F 30.3 in SE 0.8 mph 4.9 mph 61.4% 0 in 293 W/m2
13:29 50.9 °F 38.3 °F 30.3 in SSE 0.6 mph 4.9 mph 61.8% 0 in 296 W/m2
13:34 50.7 °F 37.9 °F 30.3 in SSE 0.9 mph 4.9 mph 61.3% 0 in 300 W/m2
13:39 50.5 °F 37.8 °F 30.3 in Calm   4.9 mph 61.3% 0 in 302 W/m2
13:44 50.5 °F 37.6 °F 30.3 in SSE 0.9 mph 4.9 mph 61.2% 0 in 308 W/m2
13:49 50.5 °F 37.8 °F 30.3 in Calm   4.9 mph 61.8% 0 in 308 W/m2
13:54 50.7 °F 37.9 °F 30.3 in Calm     61.3% 0 in 312 W/m2
13:59 51.1 °F 37.9 °F 30.3 in ENE 0.4 mph 4.9 mph 60.6% 0 in 312 W/m2
14:04 51.1 °F 38.1 °F 30.3 in NE 0.5 mph 4.9 mph 61.2% 0 in 311 W/m2
14:09 51.3 °F 37.8 °F 30.3 in Calm   4.9 mph 60.1% 0 in 310 W/m2
14:14 51.3 °F 37.9 °F 30.2 in ESE 0.7 mph 7.6 mph 60.6% 0 in 308 W/m2
14:19 50.9 °F 37.8 °F 30.3 in SSE 0.7 mph 4.9 mph 60.9% 0 in 305 W/m2
14:24 51.1 °F 37.9 °F 30.2 in SE 0.1 mph 4.9 mph 60.3% 0 in 303 W/m2
14:29 51.4 °F 38.3 °F 30.2 in SSE 0.6 mph 4.9 mph 60.7% 0 in 301 W/m2
14:34 51.8 °F 38.8 °F 30.2 in SSE 1 mph 7.6 mph 61% 0 in 297 W/m2
14:39 52 °F 39.6 °F 30.2 in ESE 1.5 mph 7.6 mph 62.3% 0 in 290 W/m2
14:44 51.8 °F 39.2 °F 30.2 in SSE 1.3 mph 7.6 mph 62.1% 0 in 286 W/m2
14:49 51.8 °F 39.4 °F 30.2 in South 1.1 mph 4.9 mph 62.3% 0 in 283 W/m2
14:54 51.4 °F 39.2 °F 30.2 in SE 0.2 mph 4.9 mph 63% 0 in 278 W/m2
14:59 50.9 °F 38.7 °F 30.2 in Calm     62.7% 0 in 274 W/m2
15:04 51.1 °F 38.7 °F 30.2 in Calm     62.6% 0 in 269 W/m2
15:09 51.3 °F 39 °F 30.2 in Calm   2.5 mph 63% 0 in 252 W/m2
15:14 51.8 °F 39.2 °F 30.2 in SE 0.1 mph 2.5 mph 62% 0 in 257 W/m2
15:19 52.5 °F 39.7 °F 30.2 in SE 0.2 mph 7.6 mph 61.8% 0 in 253 W/m2
15:24 52.5 °F 39.9 °F 30.2 in SSE 0.4 mph 7.6 mph 62% 0 in 242 W/m2
15:29 52.5 °F 40.3 °F 30.2 in SSE 0.2 mph 2.5 mph 62.8% 0 in 240 W/m2
15:34 52.7 °F 40.1 °F 30.2 in Calm   2.5 mph 62.3% 0 in 231 W/m2
15:39 53.1 °F 40.5 °F 30.2 in South 0.4 mph 4.9 mph 62.1% 0 in 225 W/m2
15:44 52.9 °F 40.8 °F 30.2 in SSE 0.4 mph 4.9 mph 63.3% 0 in 219 W/m2
15:49 52.7 °F 40.5 °F 30.2 in South 0.1 mph 4.9 mph 63.1% 0 in 210 W/m2
15:54 52.5 °F 40.3 °F 30.2 in Calm   2.5 mph 63.2% 0 in 189 W/m2
15:59 52 °F 40.1 °F 30.2 in Calm   2.5 mph 63.9% 0 in 188 W/m2
16:04 52 °F 40.5 °F 30.2 in Calm   4.9 mph 64.8% 0 in 174 W/m2
16:09 51.8 °F 40.8 °F 30.2 in South 0.2 mph 4.9 mph 66.2% 0 in 72 W/m2
16:14 50.9 °F 40.6 °F 30.2 in South 0.2 mph 4.9 mph 67.6% 0 in 66 W/m2
16:19 49.3 °F 39.2 °F 30.2 in SSE 0.4 mph 4.9 mph 68% 0 in 66 W/m2
16:24 49.3 °F 39.2 °F 30.2 in Calm   4.9 mph 68% 0 in 58 W/m2
16:29 49.3 °F 39.6 °F 30.2 in South 0.4 mph 4.9 mph 68.8% 0 in 52 W/m2
16:34 49.1 °F 39.6 °F 30.2 in Calm   4.9 mph 69.2% 0 in 53 W/m2
16:39 48.4 °F 39 °F 30.2 in Calm     69.9% 0 in 54 W/m2
16:44 48.4 °F 38.7 °F 30.2 in Calm     69.1% 0 in 49 W/m2
16:49 48.4 °F 38.8 °F 30.2 in Calm     69.7% 0 in 41 W/m2
16:54 48.4 °F 37.9 °F 30.2 in Calm     66.8% 0 in 36 W/m2
16:59 48.2 °F 38.3 °F 30.2 in Calm     68.7% 0 in 33 W/m2
17:04 48.2 °F 39.2 °F 30.2 in Calm     71% 0 in 30 W/m2
17:09 48 °F 39 °F 30.2 in Calm     71% 0 in 23 W/m2
17:14 47.8 °F 38.7 °F 30.2 in Calm     70.9% 0 in 20 W/m2
17:19 46.8 °F 37.6 °F 30.2 in Calm     70% 0 in 14 W/m2
17:24 46.8 °F 37.4 °F 30.2 in Calm     69.7% 0 in 10 W/m2
17:29 46.8 °F 36.7 °F 30.2 in Calm     67.8% 0 in 6 W/m2
17:34 46.8 °F 36 °F 30.2 in Calm     66% 0 in 3 W/m2
17:39 46.4 °F 36.3 °F 30.2 in Calm     67.7% 0 in 0 W/m2
17:44 46.4 °F 36.7 °F 30.2 in Calm     68.6% 0 in 0 W/m2
17:49 46.4 °F 36.9 °F 30.2 in Calm     69% 0 in 0 W/m2
17:54 46.4 °F 36.5 °F 30.2 in Calm     68% 0 in 0 W/m2
17:59 46.4 °F 35.8 °F 30.2 in Calm     66.7% 0 in 0 W/m2
18:04 46.2 °F 35.1 °F 30.2 in Calm     64.8% 0 in 0 W/m2
18:09 46.4 °F 34.5 °F 30.2 in Calm     63% 0 in 0 W/m2
18:14 46.4 °F 34.2 °F 30.2 in Calm     62% 0 in 0 W/m2
18:19 46.9 °F 34.7 °F 30.2 in Calm     62.4% 0 in 0 W/m2
18:24 46.8 °F 35.1 °F 30.2 in Calm     63.8% 0 in 0 W/m2
18:29 46.8 °F 34.9 °F 30.2 in Calm     63.2% 0 in 0 W/m2
18:34 46.6 °F 34.7 °F 30.2 in Calm     62.9% 0 in 0 W/m2
18:39 46 °F 34.3 °F 30.2 in Calm     63.3% 0 in 0 W/m2
18:44 46 °F 34.7 °F 30.2 in Calm     64.7% 0 in 0 W/m2
18:49 46 °F 35.1 °F 30.2 in Calm     65.8% 0 in 0 W/m2
18:54 46 °F 34.9 °F 30.2 in Calm     64.8% 0 in 0 W/m2
18:59 46.4 °F 34.2 °F 30.2 in Calm     62.1% 0 in 0 W/m2
19:04 46.4 °F 34.7 °F 30.2 in Calm     63.3% 0 in 0 W/m2
19:09 46.4 °F 34.9 °F 30.2 in Calm     64% 0 in 0 W/m2
19:14 46.2 °F 35.1 °F 30.2 in Calm     64.7% 0 in 0 W/m2
19:19 45.5 °F 34.2 °F 30.2 in Calm     64% 0 in 0 W/m2
19:24 45.5 °F 33.8 °F 30.2 in Calm     63.4% 0 in 0 W/m2
19:29 45.5 °F 34.3 °F 30.2 in Calm     65% 0 in 0 W/m2
19:34 45.5 °F 34 °F 30.2 in Calm     64.1% 0 in 0 W/m2
19:39 45.9 °F 34 °F 30.2 in Calm     63.2% 0 in 0 W/m2
19:44 45.9 °F 34.2 °F 30.3 in Calm     63.5% 0 in 0 W/m2
19:49 45.9 °F 34.2 °F 30.3 in Calm     63% 0 in 0 W/m2
19:54 46 °F 34.3 °F 30.3 in Calm     63.4% 0 in 0 W/m2
19:59 46 °F 34.7 °F 30.3 in Calm     64.7% 0 in 0 W/m2
20:04 46 °F 34.7 °F 30.3 in Calm     64.3% 0 in 0 W/m2
20:09 46 °F 34.9 °F 30.3 in Calm     65% 0 in 0 W/m2
20:14 45.9 °F 34.9 °F 30.3 in Calm     65.4% 0 in 0 W/m2
20:19 45.7 °F 34.5 °F 30.3 in Calm     65% 0 in 0 W/m2
20:24 45.5 °F 34.5 °F 30.3 in Calm     65.3% 0 in 0 W/m2
20:29 45.5 °F 34.3 °F 30.3 in Calm     65% 0 in 0 W/m2
20:34 45.5 °F 34.3 °F 30.3 in Calm     65% 0 in 0 W/m2
20:39 45.7 °F 34.5 °F 30.3 in Calm     65% 0 in 0 W/m2
20:44 45.7 °F 34.5 °F 30.3 in Calm     65% 0 in 0 W/m2
20:49 45.7 °F 34.3 °F 30.3 in Calm     64.2% 0 in 0 W/m2
20:54 45.7 °F 34.3 °F 30.3 in Calm     64.5% 0 in 0 W/m2
20:59 45.5 °F 34.9 °F 30.3 in Calm     66% 0 in 0 W/m2
21:04 45.5 °F 34.9 °F 30.3 in Calm     66% 0 in 0 W/m2
21:09 45.5 °F 35.1 °F 30.3 in Calm     66.3% 0 in 0 W/m2
21:14 45.5 °F 34.9 °F 30.3 in Calm     66.2% 0 in 0 W/m2
21:19 45.5 °F 35.1 °F 30.3 in Calm     66.4% 0 in 0 W/m2
21:24 45.5 °F 35.4 °F 30.3 in Calm     67.4% 0 in 0 W/m2
21:29 45.3 °F 35.6 °F 30.3 in Calm     68.3% 0 in 0 W/m2
21:34 45.1 °F 35.8 °F 30.3 in Calm     69% 0 in 0 W/m2
21:39 44.8 °F 35.4 °F 30.3 in Calm     69.3% 0 in 0 W/m2
21:44 44.6 °F 35.2 °F 30.3 in Calm     69.6% 0 in 0 W/m2
21:49 44.6 °F 35.8 °F 30.3 in Calm     70.9% 0 in 0 W/m2
21:54 44.4 °F 36 °F 30.3 in Calm     72.3% 0 in 0 W/m2
21:59 43.5 °F 35.4 °F 30.3 in Calm     73% 0 in 0 W/m2
22:04 43.2 °F 35.1 °F 30.3 in Calm     73% 0 in 0 W/m2
22:09 43.3 °F 34.3 °F 30.3 in Calm     70.3% 0 in 0 W/m2
22:14 43.5 °F 35.2 °F 30.3 in Calm     72.6% 0 in 0 W/m2
22:19 43 °F 35.4 °F 30.3 in Calm     74.1% 0 in 0 W/m2
22:24 42.6 °F 35.2 °F 30.3 in Calm     75% 0 in 0 W/m2
22:29 42.6 °F 35.1 °F 30.3 in Calm     74.7% 0 in 0 W/m2
22:34 42.6 °F 35.1 °F 30.3 in Calm     74.2% 0 in 0 W/m2
22:39 43.2 °F 35.4 °F 30.3 in Calm     74% 0 in 0 W/m2
22:44 43.5 °F 36 °F 30.3 in Calm     74.7% 0 in 0 W/m2
22:49 43.3 °F 36 °F 30.3 in Calm     75.1% 0 in 0 W/m2
22:54 43.3 °F 36.1 °F 30.3 in Calm     75.3% 0 in 0 W/m2
22:59 43.2 °F 35.8 °F 30.3 in Calm     75% 0 in 0 W/m2
23:04 43 °F 35.6 °F 30.3 in Calm     74.9% 0 in 0 W/m2
23:09 43 °F 35.1 °F 30.3 in Calm     73.8% 0 in 0 W/m2
23:14 43.2 °F 35.2 °F 30.3 in Calm     73.9% 0 in 0 W/m2
23:19 43.3 °F 35.6 °F 30.3 in Calm     74% 0 in 0 W/m2
23:24 43.3 °F 35.6 °F 30.3 in Calm     74% 0 in 0 W/m2
23:29 43.3 °F 35.6 °F 30.3 in Calm     74% 0 in 0 W/m2
23:34 43.3 °F 35.8 °F 30.3 in Calm     74.6% 0 in 0 W/m2
23:39 43.3 °F 35.8 °F 30.3 in Calm     74.7% 0 in 0 W/m2
23:44 43.3 °F 35.8 °F 30.3 in Calm     74.7% 0 in 0 W/m2
23:49 43.2 °F 36 °F 30.3 in Calm     75.8% 0 in 0 W/m2
23:54 43.2 °F 35.8 °F 30.3 in Calm     75% 0 in 0 W/m2
23:59 43.2 °F 36 °F 30.3 in Calm     75.6% 0 in 0 W/m2
Juneau County Weather
Compliments of Weather Underground - 2 mb